createdAt,value
2019-04-11T00:00:33.255Z,102115.23
2019-04-11T00:03:02.878Z,102110.23
2019-04-11T00:05:31.726Z,102113.30
2019-04-11T00:08:00.217Z,102109.04
2019-04-11T00:10:29.198Z,102117.00
2019-04-11T00:12:58.973Z,102112.70
2019-04-11T00:15:28.793Z,102113.86
2019-04-11T00:17:58.497Z,102110.55
2019-04-11T00:20:27.152Z,102114.36
2019-04-11T00:22:57.615Z,102119.27
2019-04-11T00:25:27.375Z,102120.52
2019-04-11T00:27:55.874Z,102128.87
2019-04-11T00:30:24.369Z,102130.97
2019-04-11T00:32:53.850Z,102128.27
2019-04-11T00:35:22.384Z,102129.48
2019-04-11T00:37:51.563Z,102135.63
2019-04-11T00:40:20.095Z,102137.23
2019-04-11T00:42:48.504Z,102138.59
2019-04-11T00:45:17.011Z,102134.21
2019-04-11T00:47:45.415Z,102134.72
2019-04-11T00:50:14.855Z,102134.17
2019-04-11T00:52:43.430Z,102130.72
2019-04-11T00:55:11.894Z,102138.33
2019-04-11T00:57:41.119Z,102144.73
2019-04-11T01:00:11.107Z,102137.34
2019-04-11T01:02:41.504Z,102143.67
2019-04-11T01:05:09.809Z,102145.17
2019-04-11T01:07:38.732Z,102153.13
2019-04-11T01:10:09.816Z,102149.97
2019-04-11T01:12:38.406Z,102147.87
2019-04-11T01:15:09.160Z,102151.53
2019-04-11T01:17:37.558Z,102149.97
2019-04-11T01:20:08.137Z,102152.34
2019-04-11T01:22:36.512Z,102152.91
2019-04-11T01:25:06.402Z,102154.77
2019-04-11T01:27:34.792Z,102155.14
2019-04-11T01:30:06.130Z,102148.64
2019-04-11T01:32:34.715Z,102154.29
2019-04-11T01:35:03.231Z,102150.12
2019-04-11T01:37:31.619Z,102153.84
2019-04-11T01:40:01.551Z,102162.16
2019-04-11T01:42:31.219Z,102160.59
2019-04-11T01:45:00.948Z,102160.09
2019-04-11T01:47:37.410Z,102159.59
2019-04-11T01:50:06.547Z,102168.55
2019-04-11T01:52:36.187Z,102160.45
2019-04-11T01:55:05.403Z,102160.23
2019-04-11T01:57:33.988Z,102162.80
2019-04-11T02:00:02.512Z,102168.67
2019-04-11T02:02:50.789Z,102162.81
2019-04-11T02:05:30.253Z,102166.23
2019-04-11T02:07:58.791Z,102167.94
2019-04-11T02:10:28.614Z,102175.05
2019-04-11T02:12:57.439Z,102175.31
2019-04-11T02:15:26.803Z,102178.26
2019-04-11T02:17:55.235Z,102180.45
2019-04-11T02:20:23.712Z,102184.15
2019-04-11T02:22:55.064Z,102179.36
2019-04-11T02:25:25.226Z,102186.94
2019-04-11T02:27:53.692Z,102189.27
2019-04-11T02:30:22.811Z,102192.34
2019-04-11T02:32:53.478Z,102188.79
2019-04-11T02:35:22.696Z,102190.50
2019-04-11T02:37:52.101Z,102192.81
2019-04-11T02:40:22.497Z,102196.99
2019-04-11T02:42:52.008Z,102195.73
2019-04-11T02:45:31.227Z,102197.04
2019-04-11T02:47:51.777Z,102202.34
2019-04-11T02:50:23.750Z,102203.09
2019-04-11T02:52:52.126Z,102207.23
2019-04-11T02:55:21.755Z,102213.35
2019-04-11T02:57:50.873Z,102210.16
2019-04-11T03:00:20.592Z,102212.65
2019-04-11T03:02:52.042Z,102222.16
2019-04-11T03:05:20.867Z,102222.28
2019-04-11T03:07:49.980Z,102218.80
2019-04-11T03:10:18.910Z,102229.80
2019-04-11T03:12:48.947Z,102234.13
2019-04-11T03:15:33.450Z,102232.27
2019-04-11T03:17:49.384Z,102225.36
2019-04-11T03:20:26.394Z,102230.50
2019-04-11T03:22:56.231Z,102230.42
2019-04-11T03:25:18.053Z,102233.97
2019-04-11T03:27:47.543Z,102238.98
2019-04-11T03:30:23.485Z,102233.60
2019-04-11T03:33:46.915Z,102238.44
2019-04-11T03:38:09.494Z,102239.47
2019-04-11T03:40:38.475Z,102241.83
2019-04-11T03:43:01.260Z,102244.34
2019-04-11T03:45:37.901Z,102234.78
2019-04-11T03:48:04.321Z,102247.55
2019-04-11T03:50:23.170Z,102247.13
2019-04-11T03:52:49.555Z,102249.05
2019-04-11T03:55:19.353Z,102257.35
2019-04-11T03:57:49.189Z,102256.64
2019-04-11T04:00:19.294Z,102256.30
2019-04-11T04:02:48.870Z,102264.97
2019-04-11T04:05:18.229Z,102264.30
2019-04-11T04:07:48.716Z,102264.31
2019-04-11T04:10:20.008Z,102263.77
2019-04-11T04:12:48.849Z,102264.70
2019-04-11T04:15:41.045Z,102270.85
2019-04-11T04:18:10.327Z,102276.41
2019-04-11T04:20:42.124Z,102278.41
2019-04-11T04:23:19.060Z,102280.80
2019-04-11T04:25:49.238Z,102285.23
2019-04-11T04:28:19.087Z,102289.92
2019-04-11T04:30:49.385Z,102290.00
2019-04-11T04:33:20.291Z,102290.29
2019-04-11T04:35:49.734Z,102298.89
2019-04-11T04:38:19.001Z,102299.85
2019-04-11T04:41:00.256Z,102305.80
2019-04-11T04:43:18.736Z,102309.23
2019-04-11T04:46:03.599Z,102308.67
2019-04-11T04:48:20.706Z,102315.08
2019-04-11T04:50:48.906Z,102320.75
2019-04-11T04:53:18.143Z,102318.92
2019-04-11T04:55:50.022Z,102320.16
2019-04-11T04:58:20.211Z,102325.71
2019-04-11T05:00:48.365Z,102332.43
2019-04-11T05:03:17.788Z,102327.64
2019-04-11T05:05:46.612Z,102324.39
2019-04-11T05:08:16.441Z,102321.44
2019-04-11T05:10:45.067Z,102320.04
2019-04-11T05:13:15.019Z,102316.97
2019-04-11T05:15:45.288Z,102308.62
2019-04-11T05:18:15.657Z,102303.38
2019-04-11T05:20:44.266Z,102309.77
2019-04-11T05:23:13.729Z,102309.77
2019-04-11T05:25:42.547Z,102306.07
2019-04-11T05:28:12.015Z,102309.26
2019-04-11T05:30:40.600Z,102314.64
2019-04-11T05:33:09.583Z,102314.64
2019-04-11T05:35:38.116Z,102316.30
2019-04-11T05:38:06.538Z,102316.30
2019-04-11T05:40:34.947Z,102306.50
2019-04-11T05:43:03.846Z,102315.63
2019-04-11T05:45:32.357Z,102313.62
2019-04-11T05:48:01.628Z,102312.89
2019-04-11T05:50:32.034Z,102312.36
2019-04-11T05:53:03.491Z,102318.50
2019-04-11T05:55:32.541Z,102329.70
2019-04-11T05:58:00.945Z,102332.11
2019-04-11T06:00:34.614Z,102333.65
2019-04-11T06:03:05.825Z,102328.80
2019-04-11T06:05:37.452Z,102331.39
2019-04-11T06:08:07.939Z,102328.45
2019-04-11T06:10:42.628Z,102327.67
2019-04-11T06:13:18.778Z,102333.52
2019-04-11T06:15:49.281Z,102334.71
2019-04-11T06:18:26.947Z,102347.04
2019-04-11T06:20:51.509Z,102347.30
2019-04-11T06:23:39.138Z,102347.30
2019-04-11T06:26:24.797Z,102353.63
2019-04-11T06:28:55.871Z,102357.27
2019-04-11T06:31:42.916Z,102365.00
2019-04-11T06:34:11.424Z,102360.80
2019-04-11T06:36:41.476Z,102360.80
2019-04-11T06:39:13.972Z,102365.50
2019-04-11T06:41:44.026Z,102359.95
2019-04-11T06:44:14.386Z,102366.72
2019-04-11T06:46:54.875Z,102375.33
2019-04-11T06:49:34.267Z,102367.34
2019-04-11T06:52:04.398Z,102367.34
2019-04-11T06:54:37.350Z,102364.89
2019-04-11T06:57:07.676Z,102364.64
2019-04-11T06:59:40.764Z,102364.64
2019-04-11T07:02:16.382Z,102366.41
2019-04-11T07:04:49.577Z,102364.75
2019-04-11T07:07:18.511Z,102362.08
2019-04-11T07:09:51.232Z,102371.73
2019-04-11T07:12:22.132Z,102366.45
2019-04-11T07:14:52.972Z,102369.28
2019-04-11T07:17:40.430Z,102366.34
2019-04-11T07:20:27.257Z,102358.05
2019-04-11T07:23:13.620Z,102364.48
2019-04-11T07:25:45.156Z,102364.48
2019-04-11T07:28:31.774Z,102366.51
2019-04-11T07:31:07.601Z,102374.16
2019-04-11T07:33:46.412Z,102369.89
2019-04-11T07:36:33.807Z,102374.00
2019-04-11T07:39:07.671Z,102359.28
2019-04-11T07:41:39.057Z,102359.28
2019-04-11T07:44:10.203Z,102373.00
2019-04-11T07:46:56.467Z,102373.00
2019-04-11T07:49:30.673Z,102369.36
2019-04-11T07:52:00.836Z,102386.66
2019-04-11T07:54:30.345Z,102388.16
2019-04-11T07:57:01.618Z,102393.52
2019-04-11T07:59:31.810Z,102389.45
2019-04-11T08:02:05.713Z,102387.06
2019-04-11T08:04:38.667Z,102387.06
2019-04-11T08:07:08.816Z,102381.15
2019-04-11T08:09:51.109Z,102381.07
2019-04-11T08:12:21.412Z,102390.59
2019-04-11T08:14:51.472Z,102378.59
2019-04-11T08:17:33.289Z,102379.94
2019-04-11T08:20:09.817Z,102379.91
2019-04-11T08:22:41.200Z,102385.81
2019-04-11T08:25:11.641Z,102382.37
2019-04-11T08:28:00.075Z,102386.19
2019-04-11T08:30:41.533Z,102384.82
2019-04-11T08:33:10.799Z,102380.75
2019-04-11T08:35:54.009Z,102383.48
2019-04-11T08:38:31.922Z,102377.41
2019-04-11T08:41:05.163Z,102380.61
2019-04-11T08:43:35.231Z,102388.28
2019-04-11T08:46:15.035Z,102384.80
2019-04-11T08:48:57.473Z,102387.34
2019-04-11T08:51:27.576Z,102388.12
2019-04-11T08:54:07.083Z,102389.00
2019-04-11T08:56:37.331Z,102387.31
2019-04-11T08:59:13.474Z,102391.80
2019-04-11T09:01:42.436Z,102389.50
2019-04-11T09:04:28.486Z,102388.55
2019-04-11T09:06:58.461Z,102390.42
2019-04-11T09:09:45.576Z,102387.64
2019-04-11T09:12:14.816Z,102394.84
2019-04-11T09:14:44.899Z,102386.72
2019-04-11T09:17:14.948Z,102388.67
2019-04-11T09:19:47.760Z,102385.11
2019-04-11T09:22:17.786Z,102385.28
2019-04-11T09:24:56.987Z,102391.45
2019-04-11T09:27:43.019Z,102391.77
2019-04-11T09:30:30.602Z,102389.63
2019-04-11T09:33:00.791Z,102392.00
2019-04-11T09:35:31.204Z,102393.08
2019-04-11T09:38:02.234Z,102389.34
2019-04-11T09:40:48.589Z,102397.97
2019-04-11T09:43:19.530Z,102391.05
2019-04-11T09:45:52.796Z,102391.33
2019-04-11T09:48:34.668Z,102391.51
2019-04-11T09:51:17.724Z,102388.30
2019-04-11T09:54:03.611Z,102381.17
2019-04-11T09:56:50.263Z,102388.88
2019-04-11T09:59:20.827Z,102386.66
2019-04-11T10:02:03.166Z,102390.62
2019-04-11T10:04:33.922Z,102387.68
2019-04-11T10:07:05.472Z,102386.09
2019-04-11T10:09:48.443Z,102389.34
2019-04-11T10:12:34.586Z,102388.67
2019-04-11T10:15:05.107Z,102390.47
2019-04-11T10:17:36.035Z,102384.28
2019-04-11T10:20:06.606Z,102386.55
2019-04-11T10:22:36.738Z,102394.84
2019-04-11T10:25:18.979Z,102394.00
2019-04-11T10:27:51.677Z,102392.75
2019-04-11T10:30:24.344Z,102394.84
2019-04-11T10:33:06.676Z,102394.66
2019-04-11T10:35:46.204Z,102394.73
2019-04-11T10:38:16.454Z,102390.13
2019-04-11T10:40:58.741Z,102389.05
2019-04-11T10:43:27.181Z,102389.52
2019-04-11T10:46:09.222Z,102386.86
2019-04-11T10:48:55.431Z,102401.91
2019-04-11T10:51:34.353Z,102392.50
2019-04-11T10:54:05.301Z,102401.77
2019-04-11T10:56:53.630Z,102406.80
2019-04-11T10:59:26.760Z,102394.11
2019-04-11T11:02:12.775Z,102387.52
2019-04-11T11:04:43.129Z,102380.13
2019-04-11T11:07:13.042Z,102378.07
2019-04-11T11:09:44.355Z,102372.45
2019-04-11T11:12:14.503Z,102380.38
2019-04-11T11:15:00.859Z,102382.04
2019-04-11T11:18:20.656Z,102378.25
2019-04-11T11:20:29.919Z,102385.91
2019-04-11T11:22:55.939Z,102398.89
2019-04-11T11:25:37.961Z,102394.29
2019-04-11T11:28:07.510Z,102394.72
2019-04-11T11:30:37.750Z,102398.51
2019-04-11T11:33:07.862Z,102396.64
2019-04-11T11:35:50.119Z,102403.98
2019-04-11T11:38:24.112Z,102399.48
2019-04-11T11:41:00.509Z,102402.30
2019-04-11T11:43:31.038Z,102407.20
2019-04-11T11:46:07.023Z,102405.98
2019-04-11T11:48:37.039Z,102408.55
2019-04-11T11:51:17.195Z,102410.31
2019-04-11T11:53:57.433Z,102410.60
2019-04-11T11:56:26.294Z,102417.23
2019-04-11T11:58:58.048Z,102409.13
2019-04-11T12:01:28.134Z,102420.73
2019-04-11T12:04:14.805Z,102421.03
2019-04-11T12:06:44.030Z,102425.76
2019-04-11T12:09:31.981Z,102433.03
2019-04-11T12:12:07.472Z,102425.89
2019-04-11T12:14:43.387Z,102423.83
2019-04-11T12:17:12.271Z,102431.97
2019-04-11T12:19:49.503Z,102423.59
2019-04-11T12:22:12.692Z,102424.62
2019-04-11T12:24:43.050Z,102420.03
2019-04-11T12:27:16.489Z,102422.88
2019-04-11T12:29:48.997Z,102433.63
2019-04-11T12:32:18.516Z,102431.41
2019-04-11T12:35:00.297Z,102434.70
2019-04-11T12:37:33.660Z,102434.70
2019-04-11T12:40:12.734Z,102434.27
2019-04-11T12:42:41.812Z,102434.27
2019-04-11T12:45:15.001Z,102426.08
2019-04-11T12:47:44.339Z,102429.42
2019-04-11T12:50:14.677Z,102429.42
2019-04-11T12:52:47.376Z,102438.25
2019-04-11T12:55:19.964Z,102439.31
2019-04-11T12:58:08.375Z,102440.19
2019-04-11T13:00:41.454Z,102440.19
2019-04-11T13:03:11.490Z,102435.20
2019-04-11T13:05:44.412Z,102442.91
2019-04-11T13:08:30.767Z,102436.20
2019-04-11T13:10:59.192Z,102436.20
2019-04-11T13:13:40.930Z,102446.91
2019-04-11T13:16:12.870Z,102446.91
2019-04-11T13:18:58.717Z,102442.91
2019-04-11T13:21:28.779Z,102442.86
2019-04-11T13:23:58.826Z,102442.86
2019-04-11T13:26:44.819Z,102437.86
2019-04-11T13:29:14.828Z,102437.86
2019-04-11T13:31:47.838Z,102435.83
2019-04-11T13:34:18.010Z,102447.36
2019-04-11T13:36:50.664Z,102440.84
2019-04-11T13:39:20.711Z,102445.04
2019-04-11T13:41:50.947Z,102440.44
2019-04-11T13:44:19.344Z,102440.44
2019-04-11T13:47:01.215Z,102439.05
2019-04-11T13:49:31.251Z,102422.86
2019-04-11T13:52:17.370Z,102431.84
2019-04-11T13:54:50.241Z,102422.73
2019-04-11T13:57:29.258Z,102428.83
2019-04-11T14:00:15.616Z,102420.83
2019-04-11T14:02:51.088Z,102420.83
2019-04-11T14:05:22.406Z,102432.40
2019-04-11T14:07:52.556Z,102422.81
2019-04-11T14:10:22.417Z,102425.34
2019-04-11T14:12:52.482Z,102423.77
2019-04-11T14:15:25.384Z,102426.73
2019-04-11T14:18:13.472Z,102430.94
2019-04-11T14:20:43.509Z,102422.81
2019-04-11T14:23:14.719Z,102423.39
2019-04-11T14:25:45.509Z,102422.16
2019-04-11T14:28:15.570Z,102424.97
2019-04-11T14:30:54.455Z,102423.46
2019-04-11T14:33:27.191Z,102423.97
2019-04-11T14:36:02.580Z,102424.80
2019-04-11T14:38:32.300Z,102420.09
2019-04-11T14:41:19.324Z,102426.45
2019-04-11T14:43:55.392Z,102426.52
2019-04-11T14:46:37.767Z,102421.89
2019-04-11T14:49:10.195Z,102421.89
2019-04-11T14:51:38.605Z,102419.19
2019-04-11T14:54:08.741Z,102416.53
2019-04-11T14:56:47.975Z,102420.52
2019-04-11T14:59:34.693Z,102414.16
2019-04-11T15:02:10.235Z,102414.02
2019-04-11T15:04:49.028Z,102408.78
2019-04-11T15:07:19.101Z,102413.14
2019-04-11T15:09:52.197Z,102405.77
2019-04-11T15:12:28.255Z,102405.77
2019-04-11T15:14:58.314Z,102412.59
2019-04-11T15:17:28.358Z,102409.18
2019-04-11T15:20:02.301Z,102409.45
2019-04-11T15:22:42.228Z,102419.73
2019-04-11T15:25:12.439Z,102419.73
2019-04-11T15:27:42.469Z,102421.44
2019-04-11T15:30:18.309Z,102418.45
2019-04-11T15:33:04.496Z,102419.65
2019-04-11T15:35:32.915Z,102419.65
2019-04-11T15:38:19.404Z,102411.62
2019-04-11T15:40:48.917Z,102404.38
2019-04-11T15:43:34.857Z,102423.73
2019-04-11T15:46:07.336Z,102436.83
2019-04-11T15:48:43.357Z,102436.83
2019-04-11T15:51:16.189Z,102443.37
2019-04-11T15:53:46.236Z,102432.33
2019-04-11T15:56:32.608Z,102432.66
2019-04-11T15:59:08.403Z,102432.66
2019-04-11T16:01:54.733Z,102437.89
2019-04-11T16:04:30.764Z,102436.81
2019-04-11T16:07:08.159Z,102443.97
2019-04-11T16:09:37.138Z,102443.25
2019-04-11T16:12:19.366Z,102443.25
2019-04-11T16:15:05.443Z,102447.41
2019-04-11T16:17:37.967Z,102443.97
2019-04-11T16:20:09.285Z,102446.92
2019-04-11T16:22:55.119Z,102445.21
2019-04-11T16:25:21.863Z,102446.81
2019-04-11T16:28:06.621Z,102440.52
2019-04-11T16:30:44.978Z,102440.52
2019-04-11T16:33:15.049Z,102448.63
2019-04-11T16:36:01.232Z,102451.73
2019-04-11T16:38:43.241Z,102452.69
2019-04-11T16:41:29.443Z,102453.44
2019-04-11T16:43:59.512Z,102455.40
2019-04-11T16:46:41.828Z,102451.13
2019-04-11T16:49:10.265Z,102451.23
2019-04-11T16:51:38.685Z,102451.97
2019-04-11T16:54:09.620Z,102452.35
2019-04-11T16:56:37.245Z,102454.70
2019-04-11T16:59:05.674Z,102459.72
2019-04-11T17:01:34.087Z,102461.34
2019-04-11T17:04:02.508Z,102457.39
2019-04-11T17:06:35.048Z,102460.48
2019-04-11T17:09:08.166Z,102460.36
2019-04-11T17:11:36.573Z,102460.36
2019-04-11T17:14:05.173Z,102457.15
2019-04-11T17:16:33.578Z,102458.28
2019-04-11T17:19:05.163Z,102458.28
2019-04-11T17:21:42.771Z,102460.23
2019-04-11T17:24:02.299Z,102460.37
2019-04-11T17:26:30.703Z,102465.78
2019-04-11T17:28:59.136Z,102465.78
2019-04-11T17:31:27.542Z,102460.97
2019-04-11T17:33:56.715Z,102467.87
2019-04-11T17:36:26.146Z,102467.47
2019-04-11T17:38:54.591Z,102468.11
2019-04-11T17:41:22.983Z,102474.01
2019-04-11T17:43:51.907Z,102479.40
2019-04-11T17:46:20.396Z,102479.30
2019-04-11T17:48:50.399Z,102480.38
2019-04-11T17:51:19.113Z,102487.63
2019-04-11T17:53:47.518Z,102486.78
2019-04-11T17:56:15.954Z,102495.13
2019-04-11T17:58:44.371Z,102493.27
2019-04-11T18:01:12.866Z,102492.17
2019-04-11T18:03:42.091Z,102497.47
2019-04-11T18:06:11.073Z,102493.90
2019-04-11T18:08:39.486Z,102511.74
2019-04-11T18:11:07.917Z,102506.57
2019-04-11T18:13:36.322Z,102511.73
2019-04-11T18:16:04.830Z,102518.75
2019-04-11T18:18:35.163Z,102522.06
2019-04-11T18:21:07.029Z,102518.49
2019-04-11T18:23:35.847Z,102523.57
2019-04-11T18:26:04.654Z,102524.17
2019-04-11T18:28:33.059Z,102524.30
2019-04-11T18:31:01.502Z,102524.03
2019-04-11T18:33:31.755Z,102532.41
2019-04-11T18:36:02.270Z,102532.78
2019-04-11T18:38:32.150Z,102528.70
2019-04-11T18:41:00.410Z,102537.45
2019-04-11T18:43:28.824Z,102537.94
2019-04-11T18:45:57.253Z,102535.13
2019-04-11T18:48:25.667Z,102532.63
2019-04-11T18:50:54.104Z,102543.06
2019-04-11T18:53:22.511Z,102547.25
2019-04-11T18:55:50.934Z,102541.63
2019-04-11T18:58:19.409Z,102551.94
2019-04-11T19:00:47.819Z,102545.08
2019-04-11T19:03:16.310Z,102551.69
2019-04-11T19:05:44.720Z,102550.97
2019-04-11T19:08:13.769Z,102552.80
2019-04-11T19:10:42.965Z,102559.20
2019-04-11T19:13:12.454Z,102549.24
2019-04-11T19:15:40.864Z,102550.58
2019-04-11T19:18:09.360Z,102556.84
2019-04-11T19:20:37.762Z,102553.91
2019-04-11T19:23:07.940Z,102559.39
2019-04-11T19:25:36.316Z,102558.64
2019-04-11T19:28:04.745Z,102562.20
2019-04-11T19:30:33.158Z,102560.98
2019-04-11T19:33:01.593Z,102563.58
2019-04-11T19:35:29.999Z,102557.55
2019-04-11T19:37:59.296Z,102557.45
2019-04-11T19:40:30.282Z,102565.32
2019-04-11T19:42:57.860Z,102566.55
2019-04-11T19:45:26.261Z,102568.76
2019-04-11T19:47:54.688Z,102563.97
2019-04-11T19:50:23.093Z,102568.36
2019-04-11T19:52:51.524Z,102576.87
2019-04-11T19:55:27.066Z,102571.06
2019-04-11T19:57:55.492Z,102571.92
2019-04-11T20:00:23.966Z,102571.44
2019-04-11T20:02:54.116Z,102575.45
2019-04-11T20:05:22.521Z,102572.39
2019-04-11T20:07:50.956Z,102569.85
2019-04-11T20:10:19.351Z,102571.53
2019-04-11T20:12:47.773Z,102568.00
2019-04-11T20:15:16.183Z,102575.48
2019-04-11T20:17:45.062Z,102572.69
2019-04-11T20:20:13.673Z,102577.96
2019-04-11T20:22:42.077Z,102574.62
2019-04-11T20:25:10.522Z,102571.80
2019-04-11T20:27:38.913Z,102579.31
2019-04-11T20:30:07.613Z,102579.44
2019-04-11T20:32:36.032Z,102580.66
2019-04-11T20:35:09.377Z,102579.55
2019-04-11T20:37:39.583Z,102583.50
2019-04-11T20:40:06.542Z,102578.69
2019-04-11T20:42:34.946Z,102575.84
2019-04-11T20:45:04.147Z,102577.47
2019-04-11T20:47:32.549Z,102579.64
2019-04-11T20:50:07.282Z,102575.09
2019-04-11T20:52:31.117Z,102576.21
2019-04-11T20:54:59.622Z,102575.48
2019-04-11T20:57:28.033Z,102574.59
2019-04-11T20:59:56.463Z,102571.92
2019-04-11T21:02:28.305Z,102578.03
2019-04-11T21:04:55.043Z,102579.02
2019-04-11T21:07:23.444Z,102582.14
2019-04-11T21:09:51.872Z,102578.81
2019-04-11T21:12:20.275Z,102573.91
2019-04-11T21:14:48.708Z,102577.47
2019-04-11T21:17:17.110Z,102581.52
2019-04-11T21:19:45.548Z,102586.17
2019-04-11T21:22:13.948Z,102582.84
2019-04-11T21:24:42.355Z,102582.70
2019-04-11T21:27:10.790Z,102578.03
2019-04-11T21:29:39.191Z,102576.91
2019-04-11T21:32:07.679Z,102578.25
2019-04-11T21:34:36.103Z,102582.05
2019-04-11T21:37:04.606Z,102584.08
2019-04-11T21:39:33.005Z,102584.91
2019-04-11T21:42:05.914Z,102582.80
2019-04-11T21:44:35.979Z,102579.70
2019-04-11T21:47:01.724Z,102581.98
2019-04-11T21:49:30.131Z,102581.34
2019-04-11T21:51:58.581Z,102578.58
2019-04-11T21:54:26.972Z,102581.57
2019-04-11T21:56:55.397Z,102582.99
2019-04-11T21:59:23.800Z,102579.29
2019-04-11T22:01:54.217Z,102589.44
2019-04-11T22:04:22.436Z,102588.53
2019-04-11T22:06:50.869Z,102586.05
2019-04-11T22:09:19.613Z,102590.44
2019-04-11T22:11:48.047Z,102592.92
2019-04-11T22:14:16.524Z,102588.78
2019-04-11T22:16:45.314Z,102591.11
2019-04-11T22:19:14.428Z,102594.44
2019-04-11T22:21:45.441Z,102593.11
2019-04-11T22:24:13.481Z,102593.66
2019-04-11T22:26:41.882Z,102594.97
2019-04-11T22:29:10.309Z,102595.46
2019-04-11T22:31:38.723Z,102599.61
2019-04-11T22:34:25.986Z,102597.59
2019-04-11T22:36:55.371Z,102597.42
2019-04-11T22:39:23.756Z,102597.35
2019-04-11T22:41:52.161Z,102603.34
2019-04-11T22:44:20.603Z,102600.66
2019-04-11T22:46:48.997Z,102609.78
2019-04-11T22:49:17.432Z,102608.55
2019-04-11T22:51:45.839Z,102606.23
2019-04-11T22:54:14.269Z,102607.02
2019-04-11T22:56:42.669Z,102612.22
2019-04-11T22:59:13.697Z,102619.41
2019-04-11T23:01:41.363Z,102609.98
2019-04-11T23:04:09.799Z,102617.86
2019-04-11T23:06:38.206Z,102621.30
2019-04-11T23:09:07.407Z,102619.35
2019-04-11T23:11:35.814Z,102616.54
2019-04-11T23:14:04.255Z,102627.88
2019-04-11T23:16:32.663Z,102626.55
2019-04-11T23:19:01.089Z,102626.37
2019-04-11T23:21:29.505Z,102623.97
2019-04-11T23:23:57.940Z,102626.11
2019-04-11T23:26:26.351Z,102620.34
2019-04-11T23:28:54.785Z,102623.82
2019-04-11T23:31:23.189Z,102617.00
2019-04-11T23:33:52.538Z,102613.93
2019-04-11T23:36:21.870Z,102611.72
2019-04-11T23:38:52.613Z,102614.16
2019-04-11T23:41:20.704Z,102606.76
2019-04-11T23:43:49.923Z,102608.30
2019-04-11T23:46:21.263Z,102602.31
2019-04-11T23:48:49.015Z,102604.81
2019-04-11T23:51:17.456Z,102604.11
2019-04-11T23:53:45.865Z,102599.08
2019-04-11T23:56:14.298Z,102598.19
2019-04-11T23:58:42.700Z,102596.73
